createdAt,value
2023-11-19T00:01:17.294Z,97196.22
2023-11-19T00:03:45.266Z,97209.81
2023-11-19T00:06:12.992Z,97221.59
2023-11-19T00:08:40.736Z,97232.69
2023-11-19T00:11:08.404Z,97242.03
2023-11-19T00:13:37.498Z,97249.22
2023-11-19T00:16:06.031Z,97251.41
2023-11-19T00:18:33.966Z,97230.75
2023-11-19T00:21:03.172Z,97226.84
2023-11-19T00:23:30.835Z,97233.59
2023-11-19T00:25:58.687Z,97228.53
2023-11-19T00:28:26.438Z,97215.22
2023-11-19T00:30:55.673Z,97205.69
2023-11-19T00:33:23.295Z,97210.00
2023-11-19T00:35:50.890Z,97224.72
2023-11-19T00:38:18.572Z,97224.63
2023-11-19T00:40:46.404Z,97216.28
2023-11-19T00:43:14.345Z,97221.25
2023-11-19T00:45:42.300Z,97217.44
2023-11-19T00:48:11.896Z,97208.13
2023-11-19T00:50:43.823Z,97194.66
2023-11-19T00:53:11.761Z,97194.41
2023-11-19T00:55:47.080Z,97179.75
2023-11-19T00:58:15.201Z,97158.28
2023-11-19T01:00:44.105Z,97151.22
2023-11-19T01:03:13.763Z,97174.06
2023-11-19T01:05:41.434Z,97168.78
2023-11-19T01:08:09.205Z,97170.78
2023-11-19T01:10:38.872Z,97169.16
2023-11-19T01:13:06.927Z,97173.69
2023-11-19T01:15:34.878Z,97158.50
2023-11-19T01:18:03.132Z,97151.00
2023-11-19T01:20:32.319Z,97161.84
2023-11-19T01:22:59.926Z,97168.59
2023-11-19T01:25:27.618Z,97159.63
2023-11-19T01:27:55.288Z,97174.50
2023-11-19T01:30:23.132Z,97175.66
2023-11-19T01:32:50.720Z,97183.59
2023-11-19T01:35:18.346Z,97189.22
2023-11-19T01:37:47.262Z,97181.44
2023-11-19T01:40:15.152Z,97179.09
2023-11-19T01:42:43.203Z,97176.63
2023-11-19T01:45:11.658Z,97165.81
2023-11-19T01:47:39.874Z,97173.13
2023-11-19T01:50:09.017Z,97154.28
2023-11-19T01:52:37.538Z,97145.38
2023-11-19T01:55:07.529Z,97141.81
2023-11-19T01:57:35.423Z,97146.88
2023-11-19T02:00:04.741Z,97127.19
2023-11-19T02:02:32.667Z,97136.09
2023-11-19T02:05:01.305Z,97130.00
2023-11-19T02:07:29.346Z,97133.72
2023-11-19T02:10:00.372Z,97117.59
2023-11-19T02:12:30.293Z,97129.16
2023-11-19T02:14:57.915Z,97123.94
2023-11-19T02:17:29.296Z,97123.00
2023-11-19T02:19:56.954Z,97123.78
2023-11-19T02:22:24.603Z,97127.38
2023-11-19T02:24:53.848Z,97119.44
2023-11-19T02:27:40.695Z,97117.19
2023-11-19T02:30:09.708Z,97113.53
2023-11-19T02:32:41.868Z,97115.91
2023-11-19T02:35:10.433Z,97104.50
2023-11-19T02:37:39.053Z,97113.63
2023-11-19T02:40:10.235Z,97114.72
2023-11-19T02:42:38.073Z,97116.06
2023-11-19T02:45:08.521Z,97102.03
2023-11-19T02:47:37.028Z,97092.47
2023-11-19T02:50:05.063Z,97095.03
2023-11-19T02:52:36.146Z,97090.66
2023-11-19T02:55:03.834Z,97092.13
2023-11-19T02:57:33.623Z,97090.69
2023-11-19T03:00:01.281Z,97081.25
2023-11-19T03:02:34.985Z,97072.59
2023-11-19T03:05:02.803Z,97078.63
2023-11-19T03:07:30.463Z,97087.06
2023-11-19T03:09:58.093Z,97082.94
2023-11-19T03:12:25.733Z,97079.72
2023-11-19T03:14:53.479Z,97087.69
2023-11-19T03:17:21.018Z,97082.97
2023-11-19T03:19:50.447Z,97079.69
2023-11-19T03:22:18.555Z,97086.97
2023-11-19T03:24:46.204Z,97070.50
2023-11-19T03:27:15.443Z,97073.22
2023-11-19T03:29:44.370Z,97072.38
2023-11-19T03:32:13.291Z,97065.56
2023-11-19T03:34:42.280Z,97049.66
2023-11-19T03:37:11.286Z,97071.34
2023-11-19T03:39:38.945Z,97070.84
2023-11-19T03:42:06.845Z,97069.91
2023-11-19T03:44:34.459Z,97070.94
2023-11-19T03:47:02.107Z,97072.94
2023-11-19T03:49:29.785Z,97069.38
2023-11-19T03:51:57.475Z,97063.38
2023-11-19T03:54:28.756Z,97070.94
2023-11-19T03:56:56.402Z,97058.88
2023-11-19T03:59:23.997Z,97068.00
2023-11-19T04:01:52.384Z,97063.19
2023-11-19T04:04:20.096Z,97052.84
2023-11-19T04:06:47.719Z,97043.81
2023-11-19T04:09:15.320Z,97055.38
2023-11-19T04:11:44.214Z,97053.06
2023-11-19T04:14:12.005Z,97052.22
2023-11-19T04:16:39.704Z,97055.16
2023-11-19T04:19:07.731Z,97053.47
2023-11-19T04:21:35.727Z,97048.97
2023-11-19T04:24:03.311Z,97047.06
2023-11-19T04:26:32.258Z,97055.59
2023-11-19T04:29:01.346Z,97047.69
2023-11-19T04:31:32.515Z,97030.56
2023-11-19T04:34:01.494Z,97051.25
2023-11-19T04:36:30.668Z,97040.13
2023-11-19T04:38:58.283Z,97043.59
2023-11-19T04:41:26.019Z,97038.97
2023-11-19T04:43:53.668Z,97049.28
2023-11-19T04:46:22.817Z,97045.28
2023-11-19T04:48:50.524Z,97045.28
2023-11-19T04:51:18.134Z,97049.47
2023-11-19T04:53:45.685Z,97035.16
2023-11-19T04:56:14.516Z,97054.84
2023-11-19T04:58:42.163Z,97047.78
2023-11-19T05:01:16.124Z,97054.53
2023-11-19T05:03:46.574Z,97051.78
2023-11-19T05:06:14.262Z,97044.78
2023-11-19T05:08:41.907Z,97049.06
2023-11-19T05:11:13.057Z,97038.53
2023-11-19T05:13:40.745Z,97051.81
2023-11-19T05:16:10.914Z,97045.50
2023-11-19T05:18:40.660Z,97045.19
2023-11-19T05:21:11.133Z,97037.19
2023-11-19T05:23:38.817Z,97035.28
2023-11-19T05:26:08.761Z,97035.56
2023-11-19T05:28:36.725Z,97030.72
2023-11-19T05:31:04.569Z,97029.56
2023-11-19T05:33:32.324Z,97026.00
2023-11-19T05:35:59.977Z,97030.28
2023-11-19T05:38:30.045Z,97028.00
2023-11-19T05:40:58.124Z,97024.41
2023-11-19T05:43:25.826Z,97037.44
2023-11-19T05:45:53.475Z,97029.59
2023-11-19T05:48:21.182Z,97034.75
2023-11-19T05:50:50.319Z,97040.63
2023-11-19T05:53:18.148Z,97024.84
2023-11-19T05:55:50.839Z,97054.31
2023-11-19T05:58:18.463Z,97044.75
2023-11-19T06:00:46.526Z,97048.97
2023-11-19T06:03:14.724Z,97048.13
2023-11-19T06:05:42.512Z,97055.16
2023-11-19T06:08:10.110Z,97051.88
2023-11-19T06:10:37.780Z,97048.81
2023-11-19T06:13:06.772Z,97050.16
2023-11-19T06:15:35.265Z,97063.41
2023-11-19T06:18:04.427Z,97053.03
2023-11-19T06:20:43.398Z,97055.84
2023-11-19T06:23:11.616Z,97051.44
2023-11-19T06:25:39.510Z,97062.53
2023-11-19T06:28:08.772Z,97073.16
2023-11-19T06:30:37.321Z,97070.06
2023-11-19T06:33:05.698Z,97059.88
2023-11-19T06:35:37.324Z,97062.06
2023-11-19T06:38:05.977Z,97080.19
2023-11-19T06:40:33.752Z,97071.13
2023-11-19T06:43:01.908Z,97070.03
2023-11-19T06:45:31.146Z,97066.34
2023-11-19T06:47:59.756Z,97059.84
2023-11-19T06:50:27.377Z,97076.25
2023-11-19T06:52:55.009Z,97063.94
2023-11-19T06:55:22.631Z,97066.44
2023-11-19T06:57:50.284Z,97064.78
2023-11-19T07:00:19.249Z,97065.94
2023-11-19T07:02:48.428Z,97067.53
2023-11-19T07:05:16.182Z,97062.56
2023-11-19T07:07:44.389Z,97047.09
2023-11-19T07:10:12.607Z,97078.47
2023-11-19T07:12:40.403Z,97081.53
2023-11-19T07:15:08.885Z,97071.31
2023-11-19T07:17:37.550Z,97074.78
2023-11-19T07:20:08.569Z,97084.56
2023-11-19T07:22:36.229Z,97074.97
2023-11-19T07:25:04.203Z,97071.72
2023-11-19T07:27:31.834Z,97071.00
2023-11-19T07:29:59.578Z,97074.03
2023-11-19T07:32:27.341Z,97078.66
2023-11-19T07:34:54.972Z,97072.72
2023-11-19T07:37:23.961Z,97070.03
2023-11-19T07:39:51.681Z,97079.03
2023-11-19T07:42:19.309Z,97092.19
2023-11-19T07:44:47.204Z,97086.81
2023-11-19T07:47:14.897Z,97079.50
2023-11-19T07:49:45.688Z,97078.53
2023-11-19T07:54:45.500Z,97080.09
2023-11-19T07:57:13.320Z,97075.91
2023-11-19T07:59:41.099Z,97074.88
2023-11-19T08:02:08.846Z,97072.03
2023-11-19T08:04:36.617Z,97077.78
2023-11-19T08:07:04.509Z,97077.03
2023-11-19T08:09:32.938Z,97096.03
2023-11-19T08:12:01.989Z,97090.34
2023-11-19T08:14:29.705Z,97094.91
2023-11-19T08:16:58.096Z,97081.97
2023-11-19T08:19:25.836Z,97069.41
2023-11-19T08:21:53.796Z,97094.50
2023-11-19T08:24:21.692Z,97106.88
2023-11-19T08:27:02.894Z,97095.72
2023-11-19T08:29:32.567Z,97112.97
2023-11-19T08:32:03.595Z,97113.53
2023-11-19T08:34:31.659Z,97105.66
2023-11-19T08:36:59.454Z,97106.00
2023-11-19T08:39:27.226Z,97116.81
2023-11-19T08:41:56.730Z,97115.41
2023-11-19T08:44:24.398Z,97122.22
2023-11-19T08:46:53.892Z,97111.56
2023-11-19T08:49:21.670Z,97117.31
2023-11-19T08:51:49.645Z,97114.09
2023-11-19T08:54:17.537Z,97110.94
2023-11-19T08:56:45.402Z,97115.25
2023-11-19T08:59:13.470Z,97113.38
2023-11-19T09:01:42.304Z,97113.81
2023-11-19T09:04:12.032Z,97098.91
2023-11-19T09:06:39.802Z,97108.00
2023-11-19T09:09:07.492Z,97099.22
2023-11-19T09:11:35.324Z,97077.94
2023-11-19T09:14:03.506Z,97090.19
2023-11-19T09:16:31.616Z,97079.34
2023-11-19T09:19:00.409Z,97072.56
2023-11-19T09:21:30.621Z,97062.59
2023-11-19T09:23:58.336Z,97072.44
2023-11-19T09:26:26.213Z,97067.97
2023-11-19T09:28:54.006Z,97063.00
2023-11-19T09:31:21.804Z,97067.41
2023-11-19T09:33:49.523Z,97066.38
2023-11-19T09:36:17.905Z,97069.75
2023-11-19T09:38:47.251Z,97076.56
2023-11-19T09:41:15.441Z,97072.34
2023-11-19T09:43:43.605Z,97064.00
2023-11-19T09:46:12.661Z,97055.38
2023-11-19T09:48:41.201Z,97076.34
2023-11-19T09:51:09.632Z,97068.16
2023-11-19T09:53:37.553Z,97072.78
2023-11-19T09:56:08.985Z,97082.72
2023-11-19T09:58:37.154Z,97059.41
2023-11-19T10:03:41.042Z,97055.53
2023-11-19T10:06:09.567Z,97058.88
2023-11-19T10:08:39.981Z,97065.81
2023-11-19T10:11:09.402Z,97064.44
2023-11-19T10:13:38.958Z,97061.13
2023-11-19T10:16:10.505Z,97069.81
2023-11-19T10:18:40.970Z,97047.13
2023-11-19T10:21:09.065Z,97066.72
2023-11-19T10:23:51.187Z,97068.03
2023-11-19T10:26:20.978Z,97056.50
2023-11-19T10:28:49.551Z,97093.84
2023-11-19T10:31:18.030Z,97072.53
2023-11-19T10:33:46.571Z,97068.44
2023-11-19T10:36:14.731Z,97050.78
2023-11-19T10:38:42.132Z,97054.22
2023-11-19T10:41:09.876Z,97045.97
2023-11-19T10:43:48.611Z,97045.66
2023-11-19T10:46:22.095Z,97045.66
2023-11-19T10:48:50.187Z,97037.75
2023-11-19T10:51:22.703Z,97040.91
2023-11-19T10:53:52.150Z,97044.31
2023-11-19T10:56:22.836Z,97043.47
2023-11-19T10:58:53.830Z,97036.19
2023-11-19T11:01:22.910Z,97037.84
2023-11-19T11:03:54.516Z,97038.31
2023-11-19T11:06:23.447Z,97044.38
2023-11-19T11:08:51.156Z,97052.31
2023-11-19T11:11:22.103Z,97040.03
2023-11-19T11:13:52.273Z,97027.72
2023-11-19T11:16:21.144Z,97039.56
2023-11-19T11:18:51.039Z,97034.84
2023-11-19T11:21:21.701Z,97038.63
2023-11-19T11:24:08.442Z,97052.47
2023-11-19T11:26:50.297Z,97043.19
2023-11-19T11:29:26.639Z,97062.06
2023-11-19T11:32:04.108Z,97039.69
2023-11-19T11:34:56.329Z,97031.06
2023-11-19T11:37:28.502Z,97012.47
2023-11-19T11:39:56.395Z,97026.25
2023-11-19T11:42:37.145Z,97002.78
2023-11-19T11:45:09.966Z,97005.97
2023-11-19T11:48:15.482Z,97009.19
2023-11-19T11:50:50.205Z,97011.91
2023-11-19T11:53:19.809Z,97009.59
2023-11-19T11:55:59.874Z,97016.34
2023-11-19T11:58:28.706Z,96995.44
2023-11-19T12:00:59.721Z,96995.06
2023-11-19T12:03:29.553Z,96997.09
2023-11-19T12:05:57.244Z,97000.25
2023-11-19T12:08:28.188Z,97013.66
2023-11-19T12:10:58.994Z,97013.28
2023-11-19T12:13:28.591Z,97017.78
2023-11-19T12:16:13.782Z,97013.81
2023-11-19T12:18:43.335Z,97008.13
2023-11-19T12:21:14.180Z,97000.31
2023-11-19T12:23:49.317Z,96999.34
2023-11-19T12:26:36.173Z,96984.91
2023-11-19T12:29:08.920Z,97003.59
2023-11-19T12:31:39.421Z,96995.41
2023-11-19T12:34:09.138Z,96974.53
2023-11-19T12:36:37.004Z,96991.47
2023-11-19T12:39:06.812Z,96984.66
2023-11-19T12:41:36.099Z,96963.94
2023-11-19T12:44:13.719Z,96970.19
2023-11-19T12:46:42.899Z,96975.31
2023-11-19T12:49:13.530Z,96984.31
2023-11-19T12:51:41.180Z,96973.38
2023-11-19T12:54:08.956Z,96959.28
2023-11-19T12:56:37.636Z,96960.03
2023-11-19T12:59:14.626Z,96969.00
2023-11-19T13:01:46.584Z,96967.75
2023-11-19T13:04:20.734Z,96943.19
2023-11-19T13:07:05.055Z,96977.53
2023-11-19T13:09:33.689Z,96959.22
2023-11-19T13:12:04.734Z,96959.97
2023-11-19T13:14:38.626Z,96950.84
2023-11-19T13:17:08.117Z,96954.22
2023-11-19T13:19:35.859Z,96944.88
2023-11-19T13:22:03.799Z,96939.00
2023-11-19T13:24:31.644Z,96943.94
2023-11-19T13:26:59.588Z,96952.03
2023-11-19T13:29:28.882Z,96946.06
2023-11-19T13:31:58.018Z,96944.44
2023-11-19T13:34:26.972Z,96946.78
2023-11-19T13:36:54.572Z,96921.03
2023-11-19T13:39:24.797Z,96925.22
2023-11-19T13:41:52.369Z,96947.53
2023-11-19T13:44:21.804Z,96919.13
2023-11-19T13:46:49.420Z,96923.75
2023-11-19T13:49:17.239Z,96912.97
2023-11-19T13:51:46.653Z,96916.31
2023-11-19T13:54:15.506Z,96951.19
2023-11-19T13:56:45.651Z,96916.19
2023-11-19T13:59:13.331Z,96925.16
2023-11-19T14:01:40.935Z,96921.84
2023-11-19T14:04:10.217Z,96913.72
2023-11-19T14:06:37.925Z,96925.00
2023-11-19T14:09:09.037Z,96913.19
2023-11-19T14:11:36.666Z,96932.97
2023-11-19T14:14:04.501Z,96922.63
2023-11-19T14:16:33.481Z,96920.13
2023-11-19T14:19:01.192Z,96921.22
2023-11-19T14:21:28.843Z,96912.22
2023-11-19T14:23:56.934Z,96922.50
2023-11-19T14:26:25.826Z,96918.84
2023-11-19T14:28:56.448Z,96914.34
2023-11-19T14:31:24.267Z,96910.06
2023-11-19T14:33:51.861Z,96908.91
2023-11-19T14:36:19.923Z,96915.09
2023-11-19T14:38:47.430Z,96910.84
2023-11-19T14:41:15.078Z,96912.28
2023-11-19T14:43:43.991Z,96905.94
2023-11-19T14:46:11.631Z,96903.38
2023-11-19T14:48:39.238Z,96904.44
2023-11-19T14:51:08.037Z,96911.31
2023-11-19T14:53:35.628Z,96919.97
2023-11-19T14:56:03.450Z,96931.03
2023-11-19T14:58:31.111Z,96916.06
2023-11-19T15:01:00.214Z,96925.88
2023-11-19T15:03:28.093Z,96931.22
2023-11-19T15:05:55.799Z,96941.66
2023-11-19T15:08:23.364Z,96949.66
2023-11-19T15:10:51.166Z,96922.59
2023-11-19T15:13:18.754Z,96916.19
2023-11-19T15:15:46.458Z,96928.09
2023-11-19T15:18:15.478Z,96923.91
2023-11-19T15:20:43.091Z,96920.94
2023-11-19T15:23:11.027Z,96926.06
2023-11-19T15:25:38.815Z,96935.28
2023-11-19T15:28:06.440Z,96934.25
2023-11-19T15:30:34.048Z,96940.75
2023-11-19T15:33:01.664Z,96944.88
2023-11-19T15:35:30.605Z,96954.38
2023-11-19T15:37:58.228Z,96956.78
2023-11-19T15:40:25.920Z,96962.91
2023-11-19T15:42:55.899Z,96953.66
2023-11-19T15:45:23.510Z,96962.06
2023-11-19T15:47:51.533Z,96976.47
2023-11-19T15:50:19.158Z,96968.06
2023-11-19T15:52:48.960Z,96971.78
2023-11-19T15:55:17.046Z,96973.81
2023-11-19T15:57:44.677Z,96967.31
2023-11-19T16:00:12.985Z,96952.94
2023-11-19T16:02:40.851Z,96963.25
2023-11-19T16:05:12.032Z,96966.72
2023-11-19T16:07:41.475Z,96957.13
2023-11-19T16:10:14.230Z,96955.09
2023-11-19T16:12:42.418Z,96959.91
2023-11-19T16:15:11.013Z,96967.59
2023-11-19T16:17:41.014Z,96963.72
2023-11-19T16:20:12.791Z,96958.94
2023-11-19T16:22:40.490Z,96954.63
2023-11-19T16:25:10.529Z,96963.38
2023-11-19T16:27:40.549Z,96970.72
2023-11-19T16:30:09.294Z,96977.63
2023-11-19T16:32:49.900Z,96974.78
2023-11-19T16:35:17.634Z,96975.22
2023-11-19T16:37:45.979Z,96970.56
2023-11-19T16:40:15.566Z,96979.09
2023-11-19T16:42:43.568Z,96982.81
2023-11-19T16:45:11.427Z,96988.44
2023-11-19T16:47:39.169Z,96993.94
2023-11-19T16:50:08.908Z,97000.69
2023-11-19T16:52:36.510Z,97002.75
2023-11-19T16:55:07.290Z,97001.53
2023-11-19T16:57:36.865Z,97012.22
2023-11-19T17:00:05.432Z,96996.63
2023-11-19T17:02:50.969Z,97007.28
2023-11-19T17:05:19.343Z,97019.50
2023-11-19T17:07:49.239Z,97020.34
2023-11-19T17:10:17.519Z,97021.50
2023-11-19T17:12:46.436Z,97019.38
2023-11-19T17:15:14.236Z,97043.34
2023-11-19T17:17:41.859Z,97032.66
2023-11-19T17:20:10.914Z,97030.16
2023-11-19T17:22:41.544Z,97038.75
2023-11-19T17:25:10.819Z,97027.31
2023-11-19T17:27:40.152Z,97024.66
2023-11-19T17:30:12.140Z,97033.22
2023-11-19T17:32:39.762Z,97045.34
2023-11-19T17:35:08.199Z,97047.13
2023-11-19T17:37:35.842Z,97039.22
2023-11-19T17:40:03.487Z,97036.31
2023-11-19T17:42:31.191Z,97036.53
2023-11-19T17:44:59.783Z,97033.69
2023-11-19T17:47:29.489Z,97030.06
2023-11-19T17:49:57.103Z,97033.34
2023-11-19T17:52:25.092Z,97025.72
2023-11-19T17:54:52.729Z,97034.72
2023-11-19T17:57:20.333Z,97032.13
2023-11-19T17:59:50.683Z,97031.03
2023-11-19T18:02:19.634Z,97040.84
2023-11-19T18:04:49.247Z,97032.69
2023-11-19T18:07:17.792Z,97026.44
2023-11-19T18:09:46.086Z,97036.25
2023-11-19T18:12:16.649Z,97039.38
2023-11-19T18:17:15.248Z,97030.69
2023-11-19T18:19:42.843Z,97027.69
2023-11-19T18:22:12.010Z,97037.47
2023-11-19T18:24:39.750Z,97028.06
2023-11-19T18:27:08.571Z,97029.44
2023-11-19T18:29:36.487Z,97034.50
2023-11-19T18:32:05.315Z,97026.47
2023-11-19T18:34:32.952Z,97021.56
2023-11-19T18:37:00.991Z,97018.00
2023-11-19T18:39:29.901Z,97019.72
2023-11-19T18:41:57.610Z,97019.47
2023-11-19T18:44:25.259Z,97012.72
2023-11-19T18:46:52.865Z,97004.25
2023-11-19T18:49:20.492Z,97004.06
2023-11-19T18:51:48.095Z,97004.53
2023-11-19T18:54:17.401Z,97005.53
2023-11-19T18:56:46.384Z,97006.09
2023-11-19T18:59:14.752Z,97014.66
2023-11-19T19:01:44.702Z,97002.66
2023-11-19T19:04:12.546Z,97004.13
2023-11-19T19:06:42.009Z,97004.13
2023-11-19T19:09:09.636Z,97007.03
2023-11-19T19:11:37.307Z,97005.00
2023-11-19T19:14:08.404Z,97006.75
2023-11-19T19:16:38.094Z,97008.66
2023-11-19T19:19:05.932Z,97017.22
2023-11-19T19:21:33.509Z,97014.41
2023-11-19T19:24:04.262Z,97010.38
2023-11-19T19:26:32.067Z,97008.00
2023-11-19T19:28:59.725Z,97011.56
2023-11-19T19:31:29.355Z,97012.72
2023-11-19T19:33:59.015Z,97011.31
2023-11-19T19:36:29.011Z,97010.38
2023-11-19T19:38:56.793Z,97007.69
2023-11-19T19:41:25.601Z,97003.59
2023-11-19T19:43:53.319Z,97007.00
2023-11-19T19:46:20.953Z,97014.41
2023-11-19T19:48:51.881Z,97005.31
2023-11-19T19:51:21.130Z,97010.38
2023-11-19T19:53:49.031Z,97006.31
2023-11-19T19:56:17.141Z,97006.88
2023-11-19T19:58:44.936Z,97010.38
2023-11-19T20:01:12.538Z,97004.88
2023-11-19T20:03:40.309Z,97011.16
2023-11-19T20:06:12.486Z,97006.22
2023-11-19T20:08:40.780Z,97004.78
2023-11-19T20:11:09.778Z,97008.97
2023-11-19T20:13:38.027Z,97015.22
2023-11-19T20:16:06.598Z,97013.41
2023-11-19T20:18:34.849Z,97000.38
2023-11-19T20:21:04.902Z,97009.94
2023-11-19T20:23:33.914Z,97004.44
2023-11-19T20:26:01.605Z,97010.91
2023-11-19T20:28:29.156Z,97010.44
2023-11-19T20:30:56.763Z,97009.22
2023-11-19T20:33:24.373Z,97008.75
2023-11-19T20:35:52.599Z,97020.50
2023-11-19T20:38:20.584Z,97015.22
2023-11-19T20:40:50.720Z,97010.06
2023-11-19T20:43:18.357Z,97024.66
2023-11-19T20:45:46.003Z,97004.69
2023-11-19T20:48:13.831Z,97010.44
2023-11-19T20:50:41.989Z,97017.59
2023-11-19T20:53:09.788Z,97018.44
2023-11-19T20:55:39.441Z,97023.41
2023-11-19T20:58:10.624Z,97009.75
2023-11-19T21:00:40.095Z,97020.28
2023-11-19T21:03:10.897Z,97012.13
2023-11-19T21:05:40.086Z,97010.66
2023-11-19T21:08:07.761Z,97018.06
2023-11-19T21:10:35.366Z,97022.13
2023-11-19T21:13:03.054Z,97019.50
2023-11-19T21:15:32.099Z,97025.25
2023-11-19T21:18:01.880Z,97023.63
2023-11-19T21:20:29.499Z,97024.50
2023-11-19T21:22:57.098Z,97009.88
2023-11-19T21:25:24.800Z,97008.53
2023-11-19T21:27:52.487Z,97027.56
2023-11-19T21:30:20.052Z,97014.84
2023-11-19T21:32:49.002Z,97016.06
2023-11-19T21:35:16.725Z,97007.22
2023-11-19T21:37:44.288Z,97014.97
2023-11-19T21:40:12.673Z,97029.81
2023-11-19T21:42:40.259Z,97024.34
2023-11-19T21:45:09.508Z,97002.28
2023-11-19T21:47:37.153Z,97018.34
2023-11-19T21:50:08.227Z,97010.47
2023-11-19T21:52:36.372Z,97012.97
2023-11-19T21:55:04.314Z,97002.06
2023-11-19T21:57:31.921Z,97002.78
2023-11-19T21:59:59.532Z,97005.44
2023-11-19T22:02:27.192Z,96995.94
2023-11-19T22:04:54.838Z,97008.28
2023-11-19T22:07:24.498Z,97024.47
2023-11-19T22:09:52.767Z,97002.94
2023-11-19T22:12:21.712Z,97026.03
2023-11-19T22:14:49.291Z,97049.03
2023-11-19T22:17:17.263Z,97004.84
2023-11-19T22:19:47.187Z,97012.28
2023-11-19T22:22:17.701Z,97005.94
2023-11-19T22:24:46.667Z,97001.38
2023-11-19T22:27:14.292Z,96999.78
2023-11-19T22:29:41.869Z,97006.97
2023-11-19T22:32:09.467Z,97002.22
2023-11-19T22:34:37.083Z,96988.66
2023-11-19T22:37:04.982Z,96990.56
2023-11-19T22:39:32.557Z,96998.84
2023-11-19T22:42:01.520Z,97010.69
2023-11-19T22:44:29.327Z,96989.25
2023-11-19T22:46:57.053Z,96995.34
2023-11-19T22:49:24.667Z,96992.50
2023-11-19T22:51:52.269Z,97000.06
2023-11-19T22:54:19.941Z,96986.75
2023-11-19T22:56:47.516Z,96985.66
2023-11-19T22:59:17.056Z,96997.16
2023-11-19T23:01:46.111Z,96995.56
2023-11-19T23:04:14.513Z,97007.78
2023-11-19T23:06:42.523Z,96989.81
2023-11-19T23:09:14.406Z,97002.75
2023-11-19T23:12:08.727Z,96998.31
2023-11-19T23:14:38.276Z,96990.78
2023-11-19T23:17:20.231Z,97012.34
2023-11-19T23:19:49.099Z,97002.25
2023-11-19T23:24:48.975Z,97006.16
2023-11-19T23:27:19.413Z,97032.34
2023-11-19T23:29:48.360Z,96999.34
2023-11-19T23:32:16.385Z,97000.09
2023-11-19T23:34:44.600Z,97006.09
2023-11-19T23:37:23.052Z,97007.38
2023-11-19T23:39:51.049Z,97017.38
2023-11-19T23:42:25.470Z,97015.81
2023-11-19T23:44:54.836Z,97019.50
2023-11-19T23:47:22.906Z,97017.59
2023-11-19T23:49:50.724Z,97012.13
2023-11-19T23:52:18.985Z,97014.28
2023-11-19T23:54:47.106Z,97019.75
2023-11-19T23:57:15.886Z,97014.38
2023-11-19T23:59:48.368Z,97020.50
